Adak Island, Alaska
Current Conditions -  °F | °C
As of 1:36 PM on Thursday 18 Dec 2014 (Local Time) from PADK Reporting Station
Overcast Overcast  
Wind Chill: -4°   Ceiling: 1000
Heat Index:   Visibility: 4mi
Dew Point:   Wind: 26mph
Humidity: 87%   Direction: 70°ENE
Pressure: 28.79"   Gusts: 33mph
Location:  51.88°N, 176.65°W
Report Text: PADK 182236Z AUTO 07023G29KT 4SM BKN010 OVC018 03/01 A2879 RMK AO1
Loading
Personal Weather Stations






























Interactive Weather Map New forecast layout! Learn more

10-Day Weather Forecast

Advertisements
Track Severe Weather on mobile